createdAt,value
2019-02-28T00:02:29.685Z,43.30
2019-02-28T00:05:00.388Z,43.60
2019-02-28T00:07:31.109Z,43.80
2019-02-28T00:10:01.435Z,44.20
2019-02-28T00:12:32.434Z,44.20
2019-02-28T00:15:03.096Z,44.20
2019-02-28T00:17:33.450Z,45.20
2019-02-28T00:20:05.004Z,45.20
2019-02-28T00:22:35.404Z,45.00
2019-02-28T00:25:08.935Z,44.80
2019-02-28T00:27:39.931Z,44.90
2019-02-28T00:30:17.045Z,45.00
2019-02-28T00:32:47.897Z,44.80
2019-02-28T00:35:18.812Z,44.90
2019-02-28T00:37:49.222Z,44.80
2019-02-28T00:40:19.874Z,44.70
2019-02-28T00:42:50.726Z,45.40
2019-02-28T00:45:22.589Z,44.60
2019-02-28T00:47:53.239Z,44.50
2019-02-28T00:50:27.592Z,44.60
2019-02-28T00:52:58.984Z,44.80
2019-02-28T00:55:29.637Z,44.80
2019-02-28T00:57:59.965Z,44.70
2019-02-28T01:00:30.595Z,44.70
2019-02-28T01:03:01.072Z,44.70
2019-02-28T01:05:31.689Z,44.70
2019-02-28T01:08:02.438Z,44.50
2019-02-28T01:10:39.304Z,44.40
2019-02-28T01:13:09.363Z,44.60
2019-02-28T01:15:44.488Z,44.40
2019-02-28T01:18:11.981Z,44.30
2019-02-28T01:20:42.937Z,44.30
2019-02-28T01:23:13.480Z,44.30
2019-02-28T01:25:44.082Z,44.60
2019-02-28T01:28:14.785Z,44.90
2019-02-28T01:30:45.165Z,44.70
2019-02-28T01:33:15.820Z,44.70
2019-02-28T01:35:46.148Z,44.90
2019-02-28T01:38:16.694Z,45.00
2019-02-28T01:40:47.024Z,45.40
2019-02-28T01:43:17.348Z,45.10
2019-02-28T01:45:47.977Z,44.80
2019-02-28T01:48:18.897Z,45.00
2019-02-28T01:50:49.224Z,45.00
2019-02-28T01:53:19.896Z,45.00
2019-02-28T01:55:50.250Z,45.30
2019-02-28T01:58:20.894Z,45.80
2019-02-28T02:00:53.539Z,45.60
2019-02-28T02:03:24.001Z,45.50
2019-02-28T02:05:54.623Z,45.60
2019-02-28T02:08:25.419Z,45.60
2019-02-28T02:10:56.165Z,45.40
2019-02-28T02:13:26.928Z,45.40
2019-02-28T02:15:57.657Z,45.60
2019-02-28T02:18:28.279Z,45.40
2019-02-28T02:21:00.119Z,45.40
2019-02-28T02:23:31.266Z,45.70
2019-02-28T02:26:01.906Z,45.80
2019-02-28T02:28:33.070Z,45.80
2019-02-28T02:31:03.797Z,45.40
2019-02-28T02:33:34.263Z,45.20
2019-02-28T02:36:04.892Z,45.20
2019-02-28T02:38:40.173Z,45.10
2019-02-28T02:41:07.939Z,44.80
2019-02-28T02:43:38.265Z,44.40
2019-02-28T02:46:08.911Z,44.10
2019-02-28T02:48:42.322Z,44.10
2019-02-28T02:51:12.608Z,44.30
2019-02-28T02:53:43.568Z,44.10
2019-02-28T02:56:14.428Z,44.10
2019-02-28T02:58:45.111Z,44.30
2019-02-28T03:01:15.743Z,44.20
2019-02-28T03:03:46.123Z,44.10
2019-02-28T03:06:16.718Z,44.10
2019-02-28T03:08:47.375Z,44.10
2019-02-28T03:11:17.735Z,44.20
2019-02-28T03:13:48.375Z,44.80
2019-02-28T03:16:19.014Z,44.20
2019-02-28T03:18:56.937Z,44.20
2019-02-28T03:21:22.096Z,44.30
2019-02-28T03:23:52.589Z,44.30
2019-02-28T03:26:23.247Z,44.40
2019-02-28T03:28:53.585Z,44.40
2019-02-28T03:31:24.126Z,44.30
2019-02-28T03:33:54.436Z,44.50
2019-02-28T03:36:24.755Z,44.50
2019-02-28T03:38:55.435Z,44.50
2019-02-28T03:41:26.286Z,44.50
2019-02-28T03:43:56.634Z,44.50
2019-02-28T03:46:26.995Z,44.50
2019-02-28T03:48:57.336Z,44.50
2019-02-28T03:51:28.734Z,44.50
2019-02-28T03:54:00.259Z,44.50
2019-02-28T03:56:30.850Z,44.70
2019-02-28T03:59:01.176Z,45.00
2019-02-28T04:01:31.554Z,45.30
2019-02-28T04:04:01.902Z,45.50
2019-02-28T04:06:32.228Z,45.60
2019-02-28T04:09:08.463Z,45.80
2019-02-28T04:11:35.706Z,46.00
2019-02-28T04:14:06.296Z,46.30
2019-02-28T04:16:36.947Z,46.70
2019-02-28T04:19:07.273Z,46.80
2019-02-28T04:21:37.601Z,47.20
2019-02-28T04:24:12.447Z,47.10
2019-02-28T04:26:40.435Z,47.50
2019-02-28T04:29:10.789Z,48.20
2019-02-28T04:31:41.426Z,48.70
2019-02-28T04:34:13.355Z,49.00
2019-02-28T04:36:44.117Z,49.10
2019-02-28T04:39:14.790Z,49.10
2019-02-28T04:41:45.715Z,49.00
2019-02-28T04:44:18.265Z,49.00
2019-02-28T04:46:48.098Z,49.40
2019-02-28T04:49:21.825Z,50.00
2019-02-28T04:51:50.770Z,50.50
2019-02-28T04:54:24.575Z,51.60
2019-02-28T04:56:53.711Z,51.00
2019-02-28T04:59:24.304Z,51.20
2019-02-28T05:01:55.184Z,51.90
2019-02-28T05:04:25.846Z,52.10
2019-02-28T05:06:56.457Z,52.40
2019-02-28T05:09:27.146Z,52.80
2019-02-28T05:11:57.770Z,53.10
2019-02-28T05:14:28.406Z,53.40
2019-02-28T05:16:59.244Z,53.50
2019-02-28T05:19:35.405Z,53.90
2019-02-28T05:22:01.896Z,54.10
2019-02-28T05:24:32.554Z,54.30
2019-02-28T05:27:03.144Z,54.20
2019-02-28T05:29:33.468Z,54.00
2019-02-28T05:32:03.944Z,54.30
2019-02-28T05:34:34.412Z,54.10
2019-02-28T05:37:04.763Z,54.00
2019-02-28T05:39:35.652Z,54.10
2019-02-28T05:42:06.009Z,53.80
2019-02-28T05:44:37.387Z,54.10
2019-02-28T05:47:10.936Z,54.40
2019-02-28T05:49:41.994Z,54.90
2019-02-28T05:52:12.761Z,54.80
2019-02-28T05:54:43.239Z,54.90
2019-02-28T05:57:13.863Z,55.00
2019-02-28T05:59:44.757Z,55.10
2019-02-28T06:02:15.418Z,55.00
2019-02-28T06:04:46.041Z,54.70
2019-02-28T06:07:16.662Z,55.00
2019-02-28T06:09:48.803Z,54.80
2019-02-28T06:12:19.124Z,54.50
2019-02-28T06:14:49.765Z,55.40
2019-02-28T06:17:20.749Z,55.60
2019-02-28T06:19:52.532Z,54.70
2019-02-28T06:22:23.009Z,54.80
2019-02-28T06:24:53.415Z,55.20
2019-02-28T06:27:24.352Z,55.50
2019-02-28T06:29:54.905Z,55.70
2019-02-28T06:32:27.405Z,55.60
2019-02-28T06:34:57.742Z,55.50
2019-02-28T06:37:28.740Z,55.40
2019-02-28T06:39:59.375Z,54.70
2019-02-28T06:42:29.872Z,54.40
2019-02-28T06:45:02.648Z,54.50
2019-02-28T06:47:32.528Z,54.30
2019-02-28T06:50:03.476Z,54.10
2019-02-28T06:52:34.402Z,53.80
2019-02-28T06:55:12.598Z,53.90
2019-02-28T06:57:42.382Z,53.90
2019-02-28T07:00:15.585Z,53.70
2019-02-28T07:02:46.216Z,53.90
2019-02-28T07:05:16.812Z,53.60
2019-02-28T07:07:49.088Z,53.60
2019-02-28T07:10:19.572Z,53.50
2019-02-28T07:12:50.223Z,53.20
2019-02-28T07:15:24.802Z,53.50
2019-02-28T07:17:52.880Z,53.50
2019-02-28T07:20:23.500Z,53.60
2019-02-28T07:22:55.526Z,53.60
2019-02-28T07:25:26.481Z,53.40
2019-02-28T07:27:57.129Z,53.30
2019-02-28T07:30:27.859Z,53.40
2019-02-28T07:32:59.140Z,53.20
2019-02-28T07:35:33.196Z,53.30
2019-02-28T07:38:01.499Z,53.40
2019-02-28T07:40:33.292Z,53.70
2019-02-28T07:43:03.638Z,53.20
2019-02-28T07:45:34.235Z,53.20
2019-02-28T07:48:04.981Z,53.20
2019-02-28T07:50:35.329Z,52.80
2019-02-28T07:53:08.824Z,53.00
2019-02-28T07:55:38.057Z,52.80
2019-02-28T07:58:08.803Z,52.60
2019-02-28T08:00:39.177Z,52.40
2019-02-28T08:03:11.336Z,52.40
2019-02-28T08:05:41.617Z,52.60
2019-02-28T08:08:12.280Z,52.00
2019-02-28T08:10:42.651Z,52.20
2019-02-28T08:13:13.587Z,51.60
2019-02-28T08:15:43.951Z,51.40
2019-02-28T08:18:15.828Z,51.30
2019-02-28T08:20:46.398Z,51.30
2019-02-28T08:23:16.926Z,51.30
2019-02-28T08:25:47.699Z,51.10
2019-02-28T08:28:18.445Z,51.50
2019-02-28T08:30:54.724Z,51.40
2019-02-28T08:33:20.872Z,51.50
2019-02-28T08:35:51.231Z,51.90
2019-02-28T08:38:21.616Z,50.90
2019-02-28T08:40:52.547Z,50.90
2019-02-28T08:43:27.227Z,50.60
2019-02-28T08:45:55.960Z,50.60
2019-02-28T08:48:31.396Z,50.00
2019-02-28T08:50:58.681Z,49.70
2019-02-28T08:53:29.377Z,49.60
2019-02-28T08:55:59.747Z,49.70
2019-02-28T08:58:30.107Z,49.60
2019-02-28T09:01:00.746Z,49.20
2019-02-28T09:03:31.110Z,49.00
2019-02-28T09:06:03.803Z,48.90
2019-02-28T09:08:33.980Z,49.00
2019-02-28T09:11:04.584Z,49.00
2019-02-28T09:13:34.944Z,48.30
2019-02-28T09:16:05.622Z,48.20
2019-02-28T09:18:35.980Z,46.80
2019-02-28T09:21:06.327Z,46.90
2019-02-28T09:23:37.728Z,46.90
2019-02-28T09:26:09.068Z,46.00
2019-02-28T09:28:39.448Z,45.50
2019-02-28T09:31:10.240Z,45.60
2019-02-28T09:33:40.762Z,45.70
2019-02-28T09:36:11.109Z,45.10
2019-02-28T09:38:42.266Z,44.10
2019-02-28T09:41:14.146Z,43.90
2019-02-28T09:43:44.515Z,43.70
2019-02-28T09:46:15.551Z,43.90
2019-02-28T09:48:46.736Z,43.50
2019-02-28T09:51:17.105Z,43.00
2019-02-28T09:53:50.276Z,43.00
2019-02-28T09:56:19.827Z,43.00
2019-02-28T09:58:50.199Z,43.10
2019-02-28T10:01:21.226Z,43.10
2019-02-28T10:03:55.333Z,43.00
2019-02-28T10:06:24.956Z,42.60
2019-02-28T10:08:55.591Z,42.20
2019-02-28T10:11:31.516Z,42.10
2019-02-28T10:13:58.293Z,41.40
2019-02-28T10:16:28.679Z,41.50
2019-02-28T10:18:59.026Z,41.40
2019-02-28T10:21:29.373Z,41.70
2019-02-28T10:23:59.759Z,40.40
2019-02-28T10:26:30.367Z,40.10
2019-02-28T10:29:01.292Z,40.80
2019-02-28T10:31:38.080Z,40.00
2019-02-28T10:34:03.758Z,40.40
2019-02-28T10:36:34.508Z,40.10
2019-02-28T10:39:09.056Z,40.10
2019-02-28T10:41:38.749Z,40.00
2019-02-28T10:44:09.387Z,40.20
2019-02-28T10:46:39.771Z,39.40
2019-02-28T10:49:10.146Z,39.50
2019-02-28T10:51:40.757Z,39.50
2019-02-28T10:54:14.325Z,39.40
2019-02-28T10:56:43.187Z,39.50
2019-02-28T10:59:14.083Z,39.40
2019-02-28T11:01:44.479Z,38.70
2019-02-28T11:04:15.088Z,39.00
2019-02-28T11:06:46.853Z,38.80
2019-02-28T11:09:21.738Z,38.90
2019-02-28T11:11:51.405Z,38.60
2019-02-28T11:14:23.644Z,39.50
2019-02-28T11:16:58.944Z,39.60
2019-02-28T11:19:26.823Z,39.30
2019-02-28T11:21:57.187Z,39.10
2019-02-28T11:24:27.935Z,39.00
2019-02-28T11:26:58.306Z,39.10
2019-02-28T11:29:28.942Z,39.60
2019-02-28T11:31:59.582Z,39.70
2019-02-28T11:34:29.924Z,39.20
2019-02-28T11:37:00.399Z,39.40
2019-02-28T11:39:33.648Z,39.00
2019-02-28T11:42:02.894Z,39.20
2019-02-28T11:44:33.240Z,38.90
2019-02-28T11:47:03.657Z,38.40
2019-02-28T11:49:34.000Z,38.50
2019-02-28T11:52:04.386Z,38.10
2019-02-28T11:54:34.759Z,37.60
2019-02-28T11:57:06.845Z,37.80
2019-02-28T11:59:37.515Z,38.00
2019-02-28T12:02:07.971Z,38.50
2019-02-28T12:04:40.423Z,39.10
2019-02-28T12:07:10.618Z,38.90
2019-02-28T12:09:41.160Z,39.00
2019-02-28T12:12:11.798Z,38.70
2019-02-28T12:14:42.513Z,38.90
2019-02-28T12:17:15.068Z,39.10
2019-02-28T12:19:47.575Z,39.00
2019-02-28T12:22:17.593Z,38.60
2019-02-28T12:24:48.529Z,38.90
2019-02-28T12:27:19.189Z,38.40
2019-02-28T12:29:50.037Z,38.60
2019-02-28T12:32:20.435Z,38.60
2019-02-28T12:34:51.088Z,38.20
2019-02-28T12:37:22.262Z,37.60
2019-02-28T12:39:53.749Z,37.80
2019-02-28T12:42:24.359Z,37.20
2019-02-28T12:44:55.014Z,37.10
2019-02-28T12:47:28.918Z,36.80
2019-02-28T12:49:59.353Z,36.70
2019-02-28T12:52:30.002Z,36.00
2019-02-28T12:55:00.442Z,35.90
2019-02-28T12:57:30.786Z,36.00
2019-02-28T13:00:01.436Z,35.80
2019-02-28T13:02:32.350Z,36.60
2019-02-28T13:05:02.969Z,36.30
2019-02-28T13:07:33.899Z,36.50
2019-02-28T13:10:09.278Z,36.60
2019-02-28T13:12:40.311Z,36.60
2019-02-28T13:15:13.943Z,36.40
2019-02-28T13:17:44.628Z,35.90
2019-02-28T13:20:22.123Z,36.40
2019-02-28T13:22:55.609Z,36.20
2019-02-28T13:25:24.953Z,36.50
2019-02-28T13:30:26.525Z,36.40
2019-02-28T13:32:57.273Z,36.60
2019-02-28T13:35:33.901Z,37.10
2019-02-28T13:38:04.274Z,37.40
2019-02-28T13:40:34.893Z,37.50
2019-02-28T13:43:05.872Z,37.10
2019-02-28T13:45:36.212Z,37.70
2019-02-28T13:48:06.590Z,37.70
2019-02-28T13:50:37.852Z,38.10
2019-02-28T13:53:17.539Z,38.30
2019-02-28T13:55:41.103Z,38.30
2019-02-28T13:58:11.498Z,38.30
2019-02-28T14:00:45.588Z,38.10
2019-02-28T14:03:17.035Z,38.40
2019-02-28T14:05:47.440Z,38.60
2019-02-28T14:08:18.059Z,38.90
2019-02-28T14:10:48.424Z,39.10
2019-02-28T14:13:18.908Z,39.10
2019-02-28T14:15:52.522Z,39.00
2019-02-28T14:18:23.054Z,39.50
2019-02-28T14:20:53.727Z,39.40
2019-02-28T14:23:24.633Z,39.40
2019-02-28T14:25:55.237Z,39.50
2019-02-28T14:28:26.146Z,39.70
2019-02-28T14:30:57.521Z,39.80
2019-02-28T14:33:29.395Z,39.70
2019-02-28T14:36:00.065Z,39.90
2019-02-28T14:38:32.830Z,40.40
2019-02-28T14:41:02.736Z,40.50
2019-02-28T14:43:33.158Z,41.00
2019-02-28T14:46:03.739Z,41.30
2019-02-28T14:48:36.615Z,41.60
2019-02-28T14:51:06.144Z,41.60
2019-02-28T14:53:36.525Z,41.70
2019-02-28T14:56:07.443Z,41.70
2019-02-28T14:58:38.697Z,42.30
2019-02-28T15:01:09.513Z,42.10
2019-02-28T15:03:39.851Z,42.10
2019-02-28T15:06:10.264Z,41.90
2019-02-28T15:08:40.866Z,42.00
2019-02-28T15:11:11.211Z,42.30
2019-02-28T15:13:42.016Z,42.60
2019-02-28T15:16:12.657Z,43.00
2019-02-28T15:18:44.397Z,43.10
2019-02-28T15:21:15.130Z,43.40
2019-02-28T15:23:45.501Z,43.70
2019-02-28T15:26:16.131Z,43.70
2019-02-28T15:28:48.654Z,43.70
2019-02-28T15:31:18.615Z,44.10
2019-02-28T15:33:48.987Z,44.50
2019-02-28T15:36:20.892Z,44.90
2019-02-28T15:38:52.018Z,45.00
2019-02-28T15:41:22.369Z,44.80
2019-02-28T15:43:53.707Z,44.70
2019-02-28T15:46:24.713Z,44.90
2019-02-28T15:48:55.077Z,44.70
2019-02-28T15:51:29.104Z,44.70
2019-02-28T15:53:58.402Z,45.30
2019-02-28T15:56:28.804Z,45.30
2019-02-28T15:58:59.497Z,45.40
2019-02-28T16:01:32.345Z,45.60
2019-02-28T16:04:01.913Z,45.50
2019-02-28T16:06:32.537Z,45.50
2019-02-28T16:09:02.912Z,45.40
2019-02-28T16:11:33.577Z,45.80
2019-02-28T16:14:04.538Z,45.90
2019-02-28T16:16:34.915Z,46.00
2019-02-28T16:19:05.575Z,46.40
2019-02-28T16:21:38.195Z,46.80
2019-02-28T16:24:08.626Z,46.80
2019-02-28T16:26:39.250Z,47.40
2019-02-28T16:29:09.687Z,47.40
2019-02-28T16:31:41.636Z,47.30
2019-02-28T16:34:12.338Z,47.40
2019-02-28T16:36:42.968Z,47.30
2019-02-28T16:39:16.883Z,47.80
2019-02-28T16:41:46.229Z,48.20
2019-02-28T16:44:16.924Z,48.40
2019-02-28T16:46:49.965Z,48.70
2019-02-28T16:49:19.602Z,49.20
2019-02-28T16:51:49.961Z,49.60
2019-02-28T16:54:22.472Z,50.00
2019-02-28T16:56:52.375Z,50.50
2019-02-28T16:59:23.530Z,51.40
2019-02-28T17:01:54.865Z,51.50
2019-02-28T17:04:26.385Z,51.40
2019-02-28T17:06:57.012Z,51.70
2019-02-28T17:09:30.231Z,51.50
2019-02-28T17:12:02.703Z,51.70
2019-02-28T17:14:33.489Z,54.20
2019-02-28T17:17:05.483Z,55.60
2019-02-28T17:19:35.850Z,56.50
2019-02-28T17:22:06.231Z,57.40
2019-02-28T17:24:36.865Z,59.60
2019-02-28T17:27:17.673Z,61.80
2019-02-28T17:29:49.649Z,65.70
2019-02-28T17:32:20.184Z,67.80
2019-02-28T17:34:50.946Z,68.50
2019-02-28T17:37:26.027Z,68.70
2019-02-28T17:39:53.922Z,69.70
2019-02-28T17:42:24.345Z,70.30
2019-02-28T17:44:59.758Z,70.30
2019-02-28T17:47:55.952Z,70.30
2019-02-28T17:50:43.998Z,70.30
2019-02-28T17:53:45.667Z,70.70
2019-02-28T17:56:50.067Z,71.90
2019-02-28T17:59:49.226Z,73.20
2019-02-28T18:02:42.547Z,74.80
2019-02-28T18:05:45.890Z,77.40
2019-02-28T18:08:37.613Z,79.30
2019-02-28T18:11:35.526Z,79.30
2019-02-28T18:14:46.743Z,82.00
2019-02-28T18:18:02.080Z,81.60
2019-02-28T18:21:00.703Z,83.10
2019-02-28T18:24:11.919Z,83.80
2019-02-28T18:27:11.326Z,84.70
2019-02-28T18:30:09.128Z,85.20
2019-02-28T18:32:39.467Z,87.50
2019-02-28T18:35:10.559Z,86.90
2019-02-28T18:37:40.993Z,87.20
2019-02-28T18:40:11.336Z,86.50
2019-02-28T18:42:41.741Z,86.90
2019-02-28T18:45:15.625Z,87.90
2019-02-28T18:47:44.865Z,89.60
2019-02-28T18:50:15.260Z,89.60
2019-02-28T18:52:45.628Z,89.60
2019-02-28T18:55:16.246Z,89.20
2019-02-28T18:57:46.647Z,89.00
2019-02-28T19:00:18.924Z,88.10
2019-02-28T19:02:49.565Z,88.30
2019-02-28T19:05:20.206Z,88.50
2019-02-28T19:07:50.803Z,88.80
2019-02-28T19:10:21.138Z,89.20
2019-02-28T19:12:51.554Z,89.40
2019-02-28T19:15:22.286Z,88.80
2019-02-28T19:17:52.656Z,88.90
2019-02-28T19:20:23.013Z,88.80
2019-02-28T19:22:53.366Z,88.70
2019-02-28T19:25:23.948Z,89.20
2019-02-28T19:27:54.620Z,90.20
2019-02-28T19:30:25.225Z,90.20
2019-02-28T19:32:55.824Z,90.80
2019-02-28T19:35:26.196Z,90.90
2019-02-28T19:37:56.566Z,91.10
2019-02-28T19:40:26.896Z,91.20
2019-02-28T19:42:57.967Z,91.40
2019-02-28T19:45:44.507Z,91.70
2019-02-28T19:48:15.490Z,91.90
2019-02-28T19:50:45.853Z,91.90
2019-02-28T19:53:16.549Z,92.30
2019-02-28T19:55:46.888Z,92.50
2019-02-28T19:58:18.847Z,92.30
2019-02-28T20:00:49.406Z,92.30
2019-02-28T20:03:19.784Z,92.40
2019-02-28T20:05:50.126Z,92.30
2019-02-28T20:08:20.811Z,92.30
2019-02-28T20:10:51.285Z,92.70
2019-02-28T20:13:22.335Z,93.10
2019-02-28T20:15:52.965Z,93.20
2019-02-28T20:18:23.330Z,93.10
2019-02-28T20:20:53.975Z,93.00
2019-02-28T20:23:25.084Z,93.60
2019-02-28T20:25:55.747Z,93.50
2019-02-28T20:28:26.084Z,93.80
2019-02-28T20:30:57.018Z,93.80
2019-02-28T20:33:27.623Z,93.60
2019-02-28T20:35:57.954Z,93.40
2019-02-28T20:38:28.320Z,93.40
2019-02-28T20:40:58.958Z,93.20
2019-02-28T20:43:29.309Z,92.90
2019-02-28T20:45:59.926Z,92.70
2019-02-28T20:48:30.582Z,93.10
2019-02-28T20:51:00.930Z,92.70
2019-02-28T20:53:31.289Z,92.40
2019-02-28T20:56:02.040Z,92.00
2019-02-28T20:58:32.716Z,91.80
2019-02-28T21:01:03.242Z,91.70
2019-02-28T21:03:33.598Z,91.60
2019-02-28T21:06:04.002Z,91.40
2019-02-28T21:08:34.378Z,91.30
2019-02-28T21:11:05.135Z,91.20
2019-02-28T21:13:35.505Z,91.20
2019-02-28T21:16:05.857Z,91.10
2019-02-28T21:18:36.229Z,90.80
2019-02-28T21:21:06.874Z,90.80
2019-02-28T21:23:37.577Z,90.70
2019-02-28T21:26:09.364Z,91.00
2019-02-28T21:28:40.028Z,91.10
2019-02-28T21:31:10.399Z,91.00
2019-02-28T21:33:40.813Z,91.00
2019-02-28T21:36:11.479Z,91.10
2019-02-28T21:38:42.826Z,91.00
2019-02-28T21:41:13.497Z,91.20
2019-02-28T21:43:44.179Z,90.80
2019-02-28T21:46:14.544Z,90.70
2019-02-28T21:48:44.915Z,90.90
2019-02-28T21:51:15.260Z,90.80
2019-02-28T21:53:45.672Z,90.50
2019-02-28T21:56:16.033Z,90.40
2019-02-28T21:58:46.370Z,90.50
2019-02-28T22:01:16.793Z,90.10
2019-02-28T22:03:47.453Z,89.50
2019-02-28T22:06:19.415Z,88.60
2019-02-28T22:08:49.837Z,89.00
2019-02-28T22:11:20.441Z,89.10
2019-02-28T22:13:51.108Z,88.80
2019-02-28T22:16:21.442Z,87.50
2019-02-28T22:18:51.932Z,86.60
2019-02-28T22:21:22.360Z,84.40
2019-02-28T22:23:53.260Z,83.70
2019-02-28T22:26:23.920Z,82.20
2019-02-28T22:28:54.269Z,82.00
2019-02-28T22:31:39.006Z,82.50
2019-02-28T22:34:11.013Z,81.90
2019-02-28T22:36:42.128Z,81.30
2019-02-28T22:39:12.471Z,82.10
2019-02-28T22:41:43.172Z,81.00
2019-02-28T22:44:13.852Z,80.40
2019-02-28T22:46:44.459Z,80.30
2019-02-28T22:49:15.057Z,80.20
2019-02-28T22:51:45.484Z,80.60
2019-02-28T22:54:15.995Z,80.60
2019-02-28T22:56:46.674Z,81.00
2019-02-28T22:59:17.026Z,80.50
2019-02-28T23:01:47.378Z,79.30
2019-02-28T23:04:17.991Z,79.00
2019-02-28T23:06:48.352Z,78.60
2019-02-28T23:09:19.075Z,78.50
2019-02-28T23:11:49.383Z,78.90
2019-02-28T23:14:20.005Z,79.00
2019-02-28T23:16:50.922Z,78.30
2019-02-28T23:19:21.880Z,78.50
2019-02-28T23:21:52.503Z,80.00
2019-02-28T23:24:22.840Z,80.60
2019-02-28T23:27:14.716Z,81.10
2019-02-28T23:29:52.903Z,81.20
2019-02-28T23:32:30.936Z,81.10
2019-02-28T23:35:01.266Z,81.50
2019-02-28T23:37:31.897Z,81.50
2019-02-28T23:40:02.221Z,81.90
2019-02-28T23:42:32.883Z,81.90
2019-02-28T23:45:03.588Z,82.20
2019-02-28T23:47:34.195Z,82.40
2019-02-28T23:50:08.931Z,83.50
2019-02-28T23:52:39.614Z,85.30
2019-02-28T23:55:10.610Z,86.00
2019-02-28T23:57:40.976Z,85.90
